sensor_id;sensor_type;location;lat;lon;timestamp;temperature;humidity
13458;DHT22;6801;53.018;11.560;2024-03-23T00:54:48;9.50;79.60
13458;DHT22;6801;53.018;11.560;2024-03-23T00:57:14;9.50;79.60
13458;DHT22;6801;53.018;11.560;2024-03-23T00:59:41;9.50;79.60
13458;DHT22;6801;53.018;11.560;2024-03-23T01:02:07;9.50;79.70
13458;DHT22;6801;53.018;11.560;2024-03-23T01:04:33;9.50;79.70
13458;DHT22;6801;53.018;11.560;2024-03-23T01:06:59;9.50;79.70
13458;DHT22;6801;53.018;11.560;2024-03-23T01:09:28;9.40;79.70
13458;DHT22;6801;53.018;11.560;2024-03-23T01:11:54;9.50;79.60
13458;DHT22;6801;53.018;11.560;2024-03-23T01:14:20;9.40;79.60
13458;DHT22;6801;53.018;11.560;2024-03-23T01:16:46;9.40;79.60
13458;DHT22;6801;53.018;11.560;2024-03-23T01:19:13;9.40;79.70
13458;DHT22;6801;53.018;11.560;2024-03-23T01:21:39;9.40;79.70
13458;DHT22;6801;53.018;11.560;2024-03-23T01:24:05;9.40;79.70
13458;DHT22;6801;53.018;11.560;2024-03-23T01:26:34;9.40;79.70
13458;DHT22;6801;53.018;11.560;2024-03-23T01:29:00;9.30;79.60
13458;DHT22;6801;53.018;11.560;2024-03-23T01:31:26;9.30;79.60
13458;DHT22;6801;53.018;11.560;2024-03-23T01:33:52;9.40;79.60
13458;DHT22;6801;53.018;11.560;2024-03-23T01:36:19;9.40;79.60
13458;DHT22;6801;53.018;11.560;2024-03-23T01:38:45;9.30;79.60
13458;DHT22;6801;53.018;11.560;2024-03-23T01:41:11;9.30;79.60
13458;DHT22;6801;53.018;11.560;2024-03-23T01:43:40;9.30;79.60
13458;DHT22;6801;53.018;11.560;2024-03-23T01:46:07;9.30;79.60
13458;DHT22;6801;53.018;11.560;2024-03-23T01:48:33;9.30;79.70
13458;DHT22;6801;53.018;11.560;2024-03-23T01:50:59;9.30;79.70
13458;DHT22;6801;53.018;11.560;2024-03-23T01:53:25;9.30;79.80
13458;DHT22;6801;53.018;11.560;2024-03-23T01:55:52;9.30;79.80
13458;DHT22;6801;53.018;11.560;2024-03-23T01:58:18;9.30;79.80
13458;DHT22;6801;53.018;11.560;2024-03-23T02:00:47;9.30;79.80
13458;DHT22;6801;53.018;11.560;2024-03-23T02:03:22;9.20;79.80
13458;DHT22;6801;53.018;11.560;2024-03-23T02:05:49;9.20;79.80
13458;DHT22;6801;53.018;11.560;2024-03-23T02:08:17;9.20;79.80
13458;DHT22;6801;53.018;11.560;2024-03-23T02:10:43;9.20;79.80
13458;DHT22;6801;53.018;11.560;2024-03-23T02:13:09;9.20;79.80
13458;DHT22;6801;53.018;11.560;2024-03-23T02:15:36;9.20;79.80
13458;DHT22;6801;53.018;11.560;2024-03-23T02:18:05;9.20;79.80
13458;DHT22;6801;53.018;11.560;2024-03-23T02:20:31;9.20;79.80
13458;DHT22;6801;53.018;11.560;2024-03-23T02:23:00;9.20;79.90
13458;DHT22;6801;53.018;11.560;2024-03-23T02:25:26;9.20;79.90
13458;DHT22;6801;53.018;11.560;2024-03-23T02:27:52;9.20;79.90
13458;DHT22;6801;53.018;11.560;2024-03-23T02:30:19;9.20;79.90
13458;DHT22;6801;53.018;11.560;2024-03-23T02:32:45;9.20;79.80
13458;DHT22;6801;53.018;11.560;2024-03-23T02:35:11;9.10;79.80
13458;DHT22;6801;53.018;11.560;2024-03-23T02:37:37;9.10;79.80
13458;DHT22;6801;53.018;11.560;2024-03-23T02:40:07;9.20;79.90
13458;DHT22;6801;53.018;11.560;2024-03-23T02:42:33;9.10;79.90
13458;DHT22;6801;53.018;11.560;2024-03-23T02:44:59;9.10;79.90
13458;DHT22;6801;53.018;11.560;2024-03-23T02:47:26;9.10;79.90
13458;DHT22;6801;53.018;11.560;2024-03-23T02:49:52;9.10;79.90
13458;DHT22;6801;53.018;11.560;2024-03-23T02:52:18;9.10;79.90
13458;DHT22;6801;53.018;11.560;2024-03-23T02:54:44;9.10;79.90
13458;DHT22;6801;53.018;11.560;2024-03-23T02:57:13;9.10;80.00
13458;DHT22;6801;53.018;11.560;2024-03-23T02:59:39;9.10;80.00
13458;DHT22;6801;53.018;11.560;2024-03-23T03:02:05;9.10;80.00
13458;DHT22;6801;53.018;11.560;2024-03-23T03:04:32;9.10;80.00
13458;DHT22;6801;53.018;11.560;2024-03-23T03:06:58;9.00;80.00
13458;DHT22;6801;53.018;11.560;2024-03-23T03:09:24;9.10;80.00
13458;DHT22;6801;53.018;11.560;2024-03-23T03:11:50;9.00;79.90
13458;DHT22;6801;53.018;11.560;2024-03-23T03:14:19;9.00;79.90
13458;DHT22;6801;53.018;11.560;2024-03-23T03:16:45;9.00;79.80
13458;DHT22;6801;53.018;11.560;2024-03-23T03:19:11;9.10;79.90
13458;DHT22;6801;53.018;11.560;2024-03-23T03:21:37;9.00;79.80
13458;DHT22;6801;53.018;11.560;2024-03-23T03:24:06;9.00;79.90
13458;DHT22;6801;53.018;11.560;2024-03-23T03:26:33;9.00;80.00
13458;DHT22;6801;53.018;11.560;2024-03-23T03:28:59;9.00;80.00
13458;DHT22;6801;53.018;11.560;2024-03-23T03:31:28;9.00;80.10
13458;DHT22;6801;53.018;11.560;2024-03-23T03:33:54;9.00;80.00
13458;DHT22;6801;53.018;11.560;2024-03-23T03:36:20;9.00;80.10
13458;DHT22;6801;53.018;11.560;2024-03-23T03:38:46;9.00;80.00
13458;DHT22;6801;53.018;11.560;2024-03-23T03:41:12;9.00;80.00
13458;DHT22;6801;53.018;11.560;2024-03-23T03:43:38;9.00;80.00
13458;DHT22;6801;53.018;11.560;2024-03-23T03:46:05;9.00;80.00
13458;DHT22;6801;53.018;11.560;2024-03-23T03:48:34;9.00;80.00
13458;DHT22;6801;53.018;11.560;2024-03-23T03:51:00;9.00;80.00
13458;DHT22;6801;53.018;11.560;2024-03-23T03:53:26;8.90;79.90
13458;DHT22;6801;53.018;11.560;2024-03-23T03:55:52;9.00;80.00
13458;DHT22;6801;53.018;11.560;2024-03-23T03:58:19;8.90;80.00
13458;DHT22;6801;53.018;11.560;2024-03-23T04:00:45;9.00;80.00
13458;DHT22;6801;53.018;11.560;2024-03-23T04:03:11;8.90;80.00
13458;DHT22;6801;53.018;11.560;2024-03-23T04:05:40;8.90;79.90
13458;DHT22;6801;53.018;11.560;2024-03-23T04:08:07;8.90;79.90
13458;DHT22;6801;53.018;11.560;2024-03-23T04:10:34;8.90;79.90
13458;DHT22;6801;53.018;11.560;2024-03-23T04:13:00;8.90;79.90
13458;DHT22;6801;53.018;11.560;2024-03-23T04:15:27;8.90;79.90
13458;DHT22;6801;53.018;11.560;2024-03-23T04:17:53;8.90;79.90
13458;DHT22;6801;53.018;11.560;2024-03-23T04:20:19;8.80;79.80
13458;DHT22;6801;53.018;11.560;2024-03-23T04:22:48;8.80;79.80
13458;DHT22;6801;53.018;11.560;2024-03-23T04:25:14;8.80;79.80
13458;DHT22;6801;53.018;11.560;2024-03-23T04:27:40;8.80;79.80
13458;DHT22;6801;53.018;11.560;2024-03-23T04:30:07;8.80;79.90
13458;DHT22;6801;53.018;11.560;2024-03-23T04:32:35;8.80;79.90
13458;DHT22;6801;53.018;11.560;2024-03-23T04:35:01;8.80;79.90
13458;DHT22;6801;53.018;11.560;2024-03-23T04:37:29;8.80;79.90
13458;DHT22;6801;53.018;11.560;2024-03-23T04:39:57;8.80;80.00
13458;DHT22;6801;53.018;11.560;2024-03-23T04:42:24;8.70;80.00
13458;DHT22;6801;53.018;11.560;2024-03-23T04:44:50;8.70;80.00
13458;DHT22;6801;53.018;11.560;2024-03-23T04:47:16;8.70;80.00
13458;DHT22;6801;53.018;11.560;2024-03-23T04:49:42;8.70;80.00
13458;DHT22;6801;53.018;11.560;2024-03-23T04:52:08;8.70;80.00
13458;DHT22;6801;53.018;11.560;2024-03-23T04:54:35;8.70;80.10
13458;DHT22;6801;53.018;11.560;2024-03-23T04:57:04;8.70;80.00
13458;DHT22;6801;53.018;11.560;2024-03-23T04:59:31;8.70;79.90
13458;DHT22;6801;53.018;11.560;2024-03-23T05:01:57;8.60;79.90
13458;DHT22;6801;53.018;11.560;2024-03-23T05:04:23;8.70;79.80
13458;DHT22;6801;53.018;11.560;2024-03-23T05:06:49;8.60;79.80
13458;DHT22;6801;53.018;11.560;2024-03-23T05:09:16;8.60;79.70
13458;DHT22;6801;53.018;11.560;2024-03-23T05:11:42;8.60;79.80
13458;DHT22;6801;53.018;11.560;2024-03-23T05:14:13;8.70;79.70
13458;DHT22;6801;53.018;11.560;2024-03-23T05:16:39;8.60;79.70
13458;DHT22;6801;53.018;11.560;2024-03-23T05:19:08;8.60;79.70
13458;DHT22;6801;53.018;11.560;2024-03-23T05:21:34;8.60;79.70
13458;DHT22;6801;53.018;11.560;2024-03-23T05:24:01;8.60;79.60
13458;DHT22;6801;53.018;11.560;2024-03-23T05:26:27;8.60;79.60
13458;DHT22;6801;53.018;11.560;2024-03-23T05:28:53;8.60;79.70
13458;DHT22;6801;53.018;11.560;2024-03-23T05:31:31;8.60;79.70
13458;DHT22;6801;53.018;11.560;2024-03-23T05:33:58;8.60;79.70
13458;DHT22;6801;53.018;11.560;2024-03-23T05:36:24;8.60;79.80
13458;DHT22;6801;53.018;11.560;2024-03-23T05:38:50;8.60;79.80
13458;DHT22;6801;53.018;11.560;2024-03-23T05:41:16;8.50;79.80
13458;DHT22;6801;53.018;11.560;2024-03-23T05:43:42;8.50;79.80
13458;DHT22;6801;53.018;11.560;2024-03-23T05:46:09;8.50;79.90
13458;DHT22;6801;53.018;11.560;2024-03-23T05:48:38;8.50;79.90
13458;DHT22;6801;53.018;11.560;2024-03-23T05:51:04;8.50;79.90
13458;DHT22;6801;53.018;11.560;2024-03-23T05:53:30;8.50;79.90
13458;DHT22;6801;53.018;11.560;2024-03-23T05:56:01;8.50;80.00
13458;DHT22;6801;53.018;11.560;2024-03-23T05:58:28;8.50;80.00
13458;DHT22;6801;53.018;11.560;2024-03-23T06:00:57;8.50;80.00
13458;DHT22;6801;53.018;11.560;2024-03-23T06:03:24;8.50;80.10
13458;DHT22;6801;53.018;11.560;2024-03-23T06:05:53;8.50;80.10
13458;DHT22;6801;53.018;11.560;2024-03-23T06:08:19;8.50;80.10
13458;DHT22;6801;53.018;11.560;2024-03-23T06:10:45;8.50;80.10
13458;DHT22;6801;53.018;11.560;2024-03-23T06:13:12;8.50;80.10
13458;DHT22;6801;53.018;11.560;2024-03-23T06:15:38;8.50;80.10
13458;DHT22;6801;53.018;11.560;2024-03-23T06:18:05;8.50;80.10
13458;DHT22;6801;53.018;11.560;2024-03-23T06:20:31;8.50;80.10
13458;DHT22;6801;53.018;11.560;2024-03-23T06:23:00;8.50;80.10
13458;DHT22;6801;53.018;11.560;2024-03-23T06:25:26;8.50;80.10
13458;DHT22;6801;53.018;11.560;2024-03-23T06:27:52;8.50;80.10
13458;DHT22;6801;53.018;11.560;2024-03-23T06:30:18;8.40;80.10
13458;DHT22;6801;53.018;11.560;2024-03-23T06:32:44;8.40;80.00
13458;DHT22;6801;53.018;11.560;2024-03-23T06:35:10;8.50;80.10
13458;DHT22;6801;53.018;11.560;2024-03-23T06:37:37;8.40;80.10
13458;DHT22;6801;53.018;11.560;2024-03-23T06:40:07;8.50;80.10
13458;DHT22;6801;53.018;11.560;2024-03-23T06:42:33;8.50;80.10
13458;DHT22;6801;53.018;11.560;2024-03-23T06:45:00;8.40;80.10
13458;DHT22;6801;53.018;11.560;2024-03-23T06:47:26;8.50;80.10
13458;DHT22;6801;53.018;11.560;2024-03-23T06:49:52;8.50;80.10
13458;DHT22;6801;53.018;11.560;2024-03-23T06:52:18;8.50;80.10
13458;DHT22;6801;53.018;11.560;2024-03-23T06:54:44;8.50;80.10
13458;DHT22;6801;53.018;11.560;2024-03-23T06:57:13;8.50;80.20
13458;DHT22;6801;53.018;11.560;2024-03-23T06:59:39;8.50;80.20
13458;DHT22;6801;53.018;11.560;2024-03-23T07:02:05;8.50;80.20
13458;DHT22;6801;53.018;11.560;2024-03-23T07:04:32;8.50;80.20
13458;DHT22;6801;53.018;11.560;2024-03-23T07:06:58;8.60;80.20
13458;DHT22;6801;53.018;11.560;2024-03-23T07:09:24;8.50;80.20
13458;DHT22;6801;53.018;11.560;2024-03-23T07:11:50;8.50;80.20
13458;DHT22;6801;53.018;11.560;2024-03-23T07:14:19;8.50;80.20
13458;DHT22;6801;53.018;11.560;2024-03-23T07:16:45;8.60;80.20
13458;DHT22;6801;53.018;11.560;2024-03-23T07:19:12;8.60;80.20
13458;DHT22;6801;53.018;11.560;2024-03-23T07:21:38;8.60;80.10
13458;DHT22;6801;53.018;11.560;2024-03-23T07:24:05;8.60;80.10
13458;DHT22;6801;53.018;11.560;2024-03-23T07:26:31;8.60;80.10
13458;DHT22;6801;53.018;11.560;2024-03-23T07:28:57;8.60;80.10
13458;DHT22;6801;53.018;11.560;2024-03-23T07:31:26;8.60;80.00
13458;DHT22;6801;53.018;11.560;2024-03-23T07:33:52;8.60;80.00
13458;DHT22;6801;53.018;11.560;2024-03-23T07:36:18;8.60;80.00
13458;DHT22;6801;53.018;11.560;2024-03-23T07:38:44;8.60;80.00
13458;DHT22;6801;53.018;11.560;2024-03-23T07:41:11;8.60;80.00
13458;DHT22;6801;53.018;11.560;2024-03-23T07:43:38;8.60;80.00
13458;DHT22;6801;53.018;11.560;2024-03-23T07:46:04;8.60;80.00
13458;DHT22;6801;53.018;11.560;2024-03-23T07:48:33;8.60;80.00
13458;DHT22;6801;53.018;11.560;2024-03-23T07:51:00;8.60;80.10
13458;DHT22;6801;53.018;11.560;2024-03-23T07:53:27;8.70;80.10
13458;DHT22;6801;53.018;11.560;2024-03-23T07:55:55;8.70;80.10
13458;DHT22;6801;53.018;11.560;2024-03-23T07:58:21;8.70;80.10
13458;DHT22;6801;53.018;11.560;2024-03-23T08:00:48;8.70;80.10
13458;DHT22;6801;53.018;11.560;2024-03-23T08:03:14;8.70;80.20
13458;DHT22;6801;53.018;11.560;2024-03-23T08:05:43;8.70;80.20
13458;DHT22;6801;53.018;11.560;2024-03-23T08:08:09;8.80;80.30
13458;DHT22;6801;53.018;11.560;2024-03-23T08:10:35;8.80;80.30
13458;DHT22;6801;53.018;11.560;2024-03-23T08:13:02;8.80;80.20
13458;DHT22;6801;53.018;11.560;2024-03-23T08:15:30;8.90;80.10
13458;DHT22;6801;53.018;11.560;2024-03-23T08:17:57;9.00;80.10
13458;DHT22;6801;53.018;11.560;2024-03-23T08:20:24;9.00;80.00
13458;DHT22;6801;53.018;11.560;2024-03-23T08:22:52;9.00;80.00
13458;DHT22;6801;53.018;11.560;2024-03-23T08:25:19;9.00;79.90
13458;DHT22;6801;53.018;11.560;2024-03-23T08:27:45;9.00;79.80
13458;DHT22;6801;53.018;11.560;2024-03-23T08:30:12;9.00;79.70
13458;DHT22;6801;53.018;11.560;2024-03-23T08:32:38;9.10;79.60
13458;DHT22;6801;53.018;11.560;2024-03-23T08:35:05;9.10;79.60
13458;DHT22;6801;53.018;11.560;2024-03-23T08:37:31;9.10;79.50
13458;DHT22;6801;53.018;11.560;2024-03-23T08:40:00;9.20;79.50
13458;DHT22;6801;53.018;11.560;2024-03-23T08:42:26;9.20;79.40
13458;DHT22;6801;53.018;11.560;2024-03-23T08:44:52;9.30;79.40
13458;DHT22;6801;53.018;11.560;2024-03-23T08:47:19;9.20;79.40
13458;DHT22;6801;53.018;11.560;2024-03-23T08:49:45;9.30;79.20
13458;DHT22;6801;53.018;11.560;2024-03-23T08:52:11;9.30;79.10
13458;DHT22;6801;53.018;11.560;2024-03-23T08:54:37;9.30;79.10
13458;DHT22;6801;53.018;11.560;2024-03-23T08:57:06;9.40;78.90
13458;DHT22;6801;53.018;11.560;2024-03-23T08:59:32;9.40;78.80
13458;DHT22;6801;53.018;11.560;2024-03-23T09:01:59;9.40;78.80
13458;DHT22;6801;53.018;11.560;2024-03-23T09:04:25;9.40;78.80
13458;DHT22;6801;53.018;11.560;2024-03-23T09:06:51;9.40;78.70
13458;DHT22;6801;53.018;11.560;2024-03-23T09:09:17;9.50;78.50
13458;DHT22;6801;53.018;11.560;2024-03-23T09:11:44;9.50;78.50
13458;DHT22;6801;53.018;11.560;2024-03-23T09:14:13;9.50;78.40
13458;DHT22;6801;53.018;11.560;2024-03-23T09:16:39;9.50;78.40
13458;DHT22;6801;53.018;11.560;2024-03-23T09:19:05;9.50;78.30
13458;DHT22;6801;53.018;11.560;2024-03-23T09:21:31;9.50;77.80
13458;DHT22;6801;53.018;11.560;2024-03-23T09:23:58;9.60;78.40
13458;DHT22;6801;53.018;11.560;2024-03-23T09:26:24;9.60;78.40
13458;DHT22;6801;53.018;11.560;2024-03-23T09:28:50;9.60;78.40
13458;DHT22;6801;53.018;11.560;2024-03-23T09:31:19;9.60;78.30
13458;DHT22;6801;53.018;11.560;2024-03-23T09:33:45;9.60;78.30
13458;DHT22;6801;53.018;11.560;2024-03-23T09:36:11;9.60;78.30
13458;DHT22;6801;53.018;11.560;2024-03-23T09:38:37;9.70;78.30
13458;DHT22;6801;53.018;11.560;2024-03-23T09:41:07;9.70;78.30
13458;DHT22;6801;53.018;11.560;2024-03-23T09:43:34;9.70;78.20
13458;DHT22;6801;53.018;11.560;2024-03-23T09:46:01;9.70;78.00
13458;DHT22;6801;53.018;11.560;2024-03-23T09:48:31;9.80;77.90
13458;DHT22;6801;53.018;11.560;2024-03-23T09:50:57;9.80;78.00
13458;DHT22;6801;53.018;11.560;2024-03-23T09:53:24;9.90;78.10
13458;DHT22;6801;53.018;11.560;2024-03-23T09:55:50;9.90;78.00
13458;DHT22;6801;53.018;11.560;2024-03-23T09:58:17;10.00;77.70
13458;DHT22;6801;53.018;11.560;2024-03-23T10:00:44;10.00;76.50
13458;DHT22;6801;53.018;11.560;2024-03-23T10:03:11;10.00;77.30
13458;DHT22;6801;53.018;11.560;2024-03-23T10:05:39;10.00;77.40
13458;DHT22;6801;53.018;11.560;2024-03-23T10:08:17;10.00;77.50
13458;DHT22;6801;53.018;11.560;2024-03-23T10:10:45;10.00;77.10
13458;DHT22;6801;53.018;11.560;2024-03-23T10:13:11;10.10;77.20
13458;DHT22;6801;53.018;11.560;2024-03-23T10:15:55;10.10;77.20
13458;DHT22;6801;53.018;11.560;2024-03-23T10:18:21;10.10;77.20
13458;DHT22;6801;53.018;11.560;2024-03-23T10:20:52;10.20;77.20
13458;DHT22;6801;53.018;11.560;2024-03-23T10:23:18;10.30;77.10
13458;DHT22;6801;53.018;11.560;2024-03-23T10:25:44;10.40;76.90
13458;DHT22;6801;53.018;11.560;2024-03-23T10:28:11;10.40;76.90
13458;DHT22;6801;53.018;11.560;2024-03-23T10:30:38;10.50;74.20
13458;DHT22;6801;53.018;11.560;2024-03-23T10:33:07;10.40;75.60
13458;DHT22;6801;53.018;11.560;2024-03-23T10:35:34;10.50;76.30
13458;DHT22;6801;53.018;11.560;2024-03-23T10:38:04;10.60;76.10
13458;DHT22;6801;53.018;11.560;2024-03-23T10:40:31;10.60;75.70
13458;DHT22;6801;53.018;11.560;2024-03-23T10:43:00;10.60;75.70
13458;DHT22;6801;53.018;11.560;2024-03-23T10:45:26;10.60;75.60
13458;DHT22;6801;53.018;11.560;2024-03-23T10:47:52;10.70;75.70
13458;DHT22;6801;53.018;11.560;2024-03-23T10:50:18;10.70;73.30
13458;DHT22;6801;53.018;11.560;2024-03-23T10:52:47;10.70;71.40
13458;DHT22;6801;53.018;11.560;2024-03-23T10:55:17;10.80;73.50
13458;DHT22;6801;53.018;11.560;2024-03-23T10:57:48;10.80;73.00
13458;DHT22;6801;53.018;11.560;2024-03-23T11:00:16;10.80;73.80
13458;DHT22;6801;53.018;11.560;2024-03-23T11:02:42;10.70;73.30
13458;DHT22;6801;53.018;11.560;2024-03-23T11:05:29;10.70;73.40
13458;DHT22;6801;53.018;11.560;2024-03-23T11:07:56;10.70;73.70
13458;DHT22;6801;53.018;11.560;2024-03-23T11:10:29;10.70;73.80
13458;DHT22;6801;53.018;11.560;2024-03-23T11:12:55;10.70;73.80
13458;DHT22;6801;53.018;11.560;2024-03-23T11:15:21;10.60;73.80
13458;DHT22;6801;53.018;11.560;2024-03-23T11:18:09;10.60;73.00
13458;DHT22;6801;53.018;11.560;2024-03-23T11:20:35;10.60;73.50
13458;DHT22;6801;53.018;11.560;2024-03-23T11:23:01;10.70;74.00
13458;DHT22;6801;53.018;11.560;2024-03-23T11:25:31;10.70;74.10
13458;DHT22;6801;53.018;11.560;2024-03-23T11:28:10;10.70;72.80
13458;DHT22;6801;53.018;11.560;2024-03-23T11:30:37;10.80;73.70
13458;DHT22;6801;53.018;11.560;2024-03-23T11:33:03;10.80;74.00
13458;DHT22;6801;53.018;11.560;2024-03-23T11:35:30;10.90;72.00
13458;DHT22;6801;53.018;11.560;2024-03-23T11:38:07;11.00;73.40
13458;DHT22;6801;53.018;11.560;2024-03-23T11:40:36;11.10;72.30
13458;DHT22;6801;53.018;11.560;2024-03-23T11:43:04;11.20;67.70
13458;DHT22;6801;53.018;11.560;2024-03-23T11:45:34;11.30;71.40
13458;DHT22;6801;53.018;11.560;2024-03-23T11:48:08;11.30;69.70
13458;DHT22;6801;53.018;11.560;2024-03-23T11:50:37;11.40;67.20
13458;DHT22;6801;53.018;11.560;2024-03-23T11:53:08;11.40;68.30
13458;DHT22;6801;53.018;11.560;2024-03-23T11:55:45;11.40;69.40
13458;DHT22;6801;53.018;11.560;2024-03-23T11:58:11;11.50;69.60
13458;DHT22;6801;53.018;11.560;2024-03-23T12:00:38;11.50;68.30
13458;DHT22;6801;53.018;11.560;2024-03-23T12:03:05;11.50;62.20
13458;DHT22;6801;53.018;11.560;2024-03-23T12:05:32;11.60;67.00
13458;DHT22;6801;53.018;11.560;2024-03-23T12:08:20;11.50;61.10
13458;DHT22;6801;53.018;11.560;2024-03-23T12:10:51;11.70;67.60
13458;DHT22;6801;53.018;11.560;2024-03-23T12:13:21;11.80;67.30
13458;DHT22;6801;53.018;11.560;2024-03-23T12:15:49;11.90;61.80
13458;DHT22;6801;53.018;11.560;2024-03-23T12:18:16;11.80;59.00
13458;DHT22;6801;53.018;11.560;2024-03-23T12:20:42;11.70;58.80
13458;DHT22;6801;53.018;11.560;2024-03-23T12:23:10;11.50;61.50
13458;DHT22;6801;53.018;11.560;2024-03-23T12:25:39;11.50;61.20
13458;DHT22;6801;53.018;11.560;2024-03-23T12:28:08;11.50;64.10
13458;DHT22;6801;53.018;11.560;2024-03-23T12:30:35;11.50;65.00
13458;DHT22;6801;53.018;11.560;2024-03-23T12:33:02;11.60;65.40
13458;DHT22;6801;53.018;11.560;2024-03-23T12:35:29;11.60;65.90
13458;DHT22;6801;53.018;11.560;2024-03-23T12:37:55;11.60;66.10
13458;DHT22;6801;53.018;11.560;2024-03-23T12:40:21;11.60;64.60
13458;DHT22;6801;53.018;11.560;2024-03-23T12:42:47;11.60;66.30
13458;DHT22;6801;53.018;11.560;2024-03-23T12:45:16;11.70;65.50
13458;DHT22;6801;53.018;11.560;2024-03-23T12:47:43;11.60;59.20
13458;DHT22;6801;53.018;11.560;2024-03-23T12:50:09;11.60;61.90
13458;DHT22;6801;53.018;11.560;2024-03-23T12:52:36;11.60;63.20
13458;DHT22;6801;53.018;11.560;2024-03-23T12:55:02;11.70;65.70
13458;DHT22;6801;53.018;11.560;2024-03-23T12:57:29;11.70;65.60
13458;DHT22;6801;53.018;11.560;2024-03-23T12:59:55;11.80;66.50
13458;DHT22;6801;53.018;11.560;2024-03-23T13:02:24;11.90;65.80
13458;DHT22;6801;53.018;11.560;2024-03-23T13:04:51;11.90;65.70
13458;DHT22;6801;53.018;11.560;2024-03-23T13:07:18;12.00;65.30
13458;DHT22;6801;53.018;11.560;2024-03-23T13:09:44;12.10;65.10
13458;DHT22;6801;53.018;11.560;2024-03-23T13:12:11;12.10;64.10
13458;DHT22;6801;53.018;11.560;2024-03-23T13:14:38;12.20;61.80
13458;DHT22;6801;53.018;11.560;2024-03-23T13:17:05;12.20;63.30
13458;DHT22;6801;53.018;11.560;2024-03-23T13:19:33;12.20;61.20
13458;DHT22;6801;53.018;11.560;2024-03-23T13:22:00;12.20;60.50
13458;DHT22;6801;53.018;11.560;2024-03-23T13:24:27;12.20;62.80
13458;DHT22;6801;53.018;11.560;2024-03-23T13:26:55;12.10;62.80
13458;DHT22;6801;53.018;11.560;2024-03-23T13:29:21;12.10;63.40
13458;DHT22;6801;53.018;11.560;2024-03-23T13:31:48;12.00;60.90
13458;DHT22;6801;53.018;11.560;2024-03-23T13:34:15;12.00;59.90
13458;DHT22;6801;53.018;11.560;2024-03-23T13:36:44;12.00;62.40
13458;DHT22;6801;53.018;11.560;2024-03-23T13:39:11;12.00;61.20
13458;DHT22;6801;53.018;11.560;2024-03-23T13:41:41;12.00;64.10
13458;DHT22;6801;53.018;11.560;2024-03-23T13:44:08;12.10;65.10
13458;DHT22;6801;53.018;11.560;2024-03-23T13:46:35;12.20;65.30
13458;DHT22;6801;53.018;11.560;2024-03-23T13:49:01;12.30;65.80
13458;DHT22;6801;53.018;11.560;2024-03-23T13:51:27;12.30;63.70
13458;DHT22;6801;53.018;11.560;2024-03-23T13:53:56;12.40;65.50
13458;DHT22;6801;53.018;11.560;2024-03-23T13:56:23;12.50;66.00
13458;DHT22;6801;53.018;11.560;2024-03-23T13:58:50;12.50;65.60
13458;DHT22;6801;53.018;11.560;2024-03-23T14:01:16;12.60;65.00
13458;DHT22;6801;53.018;11.560;2024-03-23T14:03:43;12.70;64.90
13458;DHT22;6801;53.018;11.560;2024-03-23T14:06:10;12.80;63.20
13458;DHT22;6801;53.018;11.560;2024-03-23T14:08:37;12.80;62.50
13458;DHT22;6801;53.018;11.560;2024-03-23T14:11:06;12.80;61.50
13458;DHT22;6801;53.018;11.560;2024-03-23T14:13:32;12.90;62.40
13458;DHT22;6801;53.018;11.560;2024-03-23T14:15:58;12.90;58.40
13458;DHT22;6801;53.018;11.560;2024-03-23T14:18:25;12.90;58.90
13458;DHT22;6801;53.018;11.560;2024-03-23T14:20:55;12.90;59.80
13458;DHT22;6801;53.018;11.560;2024-03-23T14:23:22;13.00;59.80
13458;DHT22;6801;53.018;11.560;2024-03-23T14:25:48;13.00;59.20
13458;DHT22;6801;53.018;11.560;2024-03-23T14:28:17;13.00;59.20
13458;DHT22;6801;53.018;11.560;2024-03-23T14:30:43;13.00;56.70
13458;DHT22;6801;53.018;11.560;2024-03-23T14:33:09;12.90;57.90
13458;DHT22;6801;53.018;11.560;2024-03-23T14:35:36;12.80;57.80
13458;DHT22;6801;53.018;11.560;2024-03-23T14:38:02;12.80;59.00
13458;DHT22;6801;53.018;11.560;2024-03-23T14:40:28;12.80;59.50
13458;DHT22;6801;53.018;11.560;2024-03-23T14:42:55;12.90;58.80
13458;DHT22;6801;53.018;11.560;2024-03-23T14:45:24;12.90;57.80
13458;DHT22;6801;53.018;11.560;2024-03-23T14:47:50;12.90;58.30
13458;DHT22;6801;53.018;11.560;2024-03-23T14:50:16;12.80;54.10
13458;DHT22;6801;53.018;11.560;2024-03-23T14:52:43;12.80;57.90
13458;DHT22;6801;53.018;11.560;2024-03-23T14:55:10;12.80;56.90
13458;DHT22;6801;53.018;11.560;2024-03-23T14:57:36;12.80;56.70
13458;DHT22;6801;53.018;11.560;2024-03-23T15:00:03;12.80;57.20
13458;DHT22;6801;53.018;11.560;2024-03-23T15:02:32;12.90;58.00
13458;DHT22;6801;53.018;11.560;2024-03-23T15:04:59;13.00;56.90
13458;DHT22;6801;53.018;11.560;2024-03-23T15:07:25;12.80;56.40
13458;DHT22;6801;53.018;11.560;2024-03-23T15:09:51;12.70;55.00
13458;DHT22;6801;53.018;11.560;2024-03-23T15:12:18;12.70;56.50
13458;DHT22;6801;53.018;11.560;2024-03-23T15:14:44;12.60;57.60
13458;DHT22;6801;53.018;11.560;2024-03-23T15:17:10;12.60;57.80
13458;DHT22;6801;53.018;11.560;2024-03-23T15:19:39;12.40;57.50
13458;DHT22;6801;53.018;11.560;2024-03-23T15:22:06;12.40;57.50
13458;DHT22;6801;53.018;11.560;2024-03-23T15:24:33;12.20;56.60
13458;DHT22;6801;53.018;11.560;2024-03-23T15:26:59;12.10;58.40
13458;DHT22;6801;53.018;11.560;2024-03-23T15:29:25;12.10;59.40
13458;DHT22;6801;53.018;11.560;2024-03-23T15:31:51;12.00;57.40
13458;DHT22;6801;53.018;11.560;2024-03-23T15:34:18;11.50;57.80
13458;DHT22;6801;53.018;11.560;2024-03-23T15:36:46;11.40;60.00
13458;DHT22;6801;53.018;11.560;2024-03-23T15:39:12;11.20;59.50
13458;DHT22;6801;53.018;11.560;2024-03-23T15:41:39;11.10;60.60
13458;DHT22;6801;53.018;11.560;2024-03-23T15:44:05;11.00;60.60
13458;DHT22;6801;53.018;11.560;2024-03-23T15:46:32;11.00;61.50
13458;DHT22;6801;53.018;11.560;2024-03-23T15:48:58;10.90;62.00
13458;DHT22;6801;53.018;11.560;2024-03-23T15:51:24;10.70;61.10
13458;DHT22;6801;53.018;11.560;2024-03-23T15:53:53;10.70;62.50
13458;DHT22;6801;53.018;11.560;2024-03-23T15:56:19;10.50;62.10
13458;DHT22;6801;53.018;11.560;2024-03-23T15:58:45;10.40;63.60
13458;DHT22;6801;53.018;11.560;2024-03-23T16:01:11;10.30;63.50
13458;DHT22;6801;53.018;11.560;2024-03-23T16:03:37;10.30;64.10
13458;DHT22;6801;53.018;11.560;2024-03-23T16:06:05;10.40;64.50
13458;DHT22;6801;53.018;11.560;2024-03-23T16:08:32;10.40;64.90
13458;DHT22;6801;53.018;11.560;2024-03-23T16:11:03;10.40;65.00
13458;DHT22;6801;53.018;11.560;2024-03-23T16:13:30;10.40;65.50
13458;DHT22;6801;53.018;11.560;2024-03-23T16:15:56;10.40;65.60
13458;DHT22;6801;53.018;11.560;2024-03-23T16:18:23;10.40;66.10
13458;DHT22;6801;53.018;11.560;2024-03-23T16:20:57;10.40;65.90
13458;DHT22;6801;53.018;11.560;2024-03-23T16:23:24;10.50;66.10
13458;DHT22;6801;53.018;11.560;2024-03-23T16:25:51;10.50;66.00
13458;DHT22;6801;53.018;11.560;2024-03-23T16:28:25;10.50;65.80
13458;DHT22;6801;53.018;11.560;2024-03-23T16:30:55;10.60;65.50
13458;DHT22;6801;53.018;11.560;2024-03-23T16:33:22;10.50;66.10